sensor_id;sensor_type;location;lat;lon;timestamp;P1;durP1;ratioP1;P2;durP2;ratioP2
77864;SDS011;67061;48.524;9.040;2023-02-04T00:01:29;2.55;;;0.80;;
77864;SDS011;67061;48.524;9.040;2023-02-04T00:03:58;1.60;;;1.10;;
77864;SDS011;67061;48.524;9.040;2023-02-04T00:06:24;2.78;;;1.30;;
77864;SDS011;67061;48.524;9.040;2023-02-04T00:08:51;1.52;;;1.20;;
77864;SDS011;67061;48.524;9.040;2023-02-04T00:11:18;1.60;;;1.15;;
77864;SDS011;67061;48.524;9.040;2023-02-04T00:13:45;1.60;;;0.85;;
77864;SDS011;67061;48.524;9.040;2023-02-04T00:16:12;1.75;;;1.05;;
77864;SDS011;67061;48.524;9.040;2023-02-04T00:18:39;3.00;;;1.92;;
77864;SDS011;67061;48.524;9.040;2023-02-04T00:21:07;2.70;;;1.38;;
77864;SDS011;67061;48.524;9.040;2023-02-04T00:23:34;1.80;;;1.17;;
77864;SDS011;67061;48.524;9.040;2023-02-04T00:26:01;1.70;;;1.33;;
77864;SDS011;67061;48.524;9.040;2023-02-04T00:28:28;1.70;;;0.98;;
77864;SDS011;67061;48.524;9.040;2023-02-04T00:30:54;1.55;;;1.23;;
77864;SDS011;67061;48.524;9.040;2023-02-04T00:33:21;2.35;;;1.90;;
77864;SDS011;67061;48.524;9.040;2023-02-04T00:35:48;5.07;;;3.08;;
77864;SDS011;67061;48.524;9.040;2023-02-04T00:38:16;2.28;;;0.98;;
77864;SDS011;67061;48.524;9.040;2023-02-04T00:40:43;3.10;;;1.27;;
77864;SDS011;67061;48.524;9.040;2023-02-04T00:43:10;1.70;;;1.00;;
77864;SDS011;67061;48.524;9.040;2023-02-04T00:45:37;1.88;;;1.45;;
77864;SDS011;67061;48.524;9.040;2023-02-04T00:48:04;1.80;;;1.40;;
77864;SDS011;67061;48.524;9.040;2023-02-04T00:50:31;2.63;;;1.92;;
77864;SDS011;67061;48.524;9.040;2023-02-04T00:52:58;1.88;;;1.52;;
77864;SDS011;67061;48.524;9.040;2023-02-04T00:55:27;2.33;;;0.63;;
77864;SDS011;67061;48.524;9.040;2023-02-04T00:57:54;3.38;;;1.92;;
77864;SDS011;67061;48.524;9.040;2023-02-04T01:00:21;2.33;;;1.60;;
77864;SDS011;67061;48.524;9.040;2023-02-04T01:02:48;2.78;;;1.88;;
77864;SDS011;67061;48.524;9.040;2023-02-04T01:05:15;4.53;;;1.80;;
77864;SDS011;67061;48.524;9.040;2023-02-04T01:07:42;3.42;;;1.67;;
77864;SDS011;67061;48.524;9.040;2023-02-04T01:10:09;2.55;;;1.95;;
77864;SDS011;67061;48.524;9.040;2023-02-04T01:12:38;5.05;;;2.00;;
77864;SDS011;67061;48.524;9.040;2023-02-04T01:15:05;3.08;;;1.80;;
77864;SDS011;67061;48.524;9.040;2023-02-04T01:17:32;3.83;;;2.22;;
77864;SDS011;67061;48.524;9.040;2023-02-04T01:19:59;3.50;;;2.05;;
77864;SDS011;67061;48.524;9.040;2023-02-04T01:22:26;4.30;;;2.30;;
77864;SDS011;67061;48.524;9.040;2023-02-04T01:24:53;4.10;;;2.42;;
77864;SDS011;67061;48.524;9.040;2023-02-04T01:27:20;3.15;;;2.05;;
77864;SDS011;67061;48.524;9.040;2023-02-04T01:29:48;2.83;;;1.50;;
77864;SDS011;67061;48.524;9.040;2023-02-04T01:32:15;2.28;;;1.52;;
77864;SDS011;67061;48.524;9.040;2023-02-04T01:34:42;2.58;;;1.60;;
77864;SDS011;67061;48.524;9.040;2023-02-04T01:37:08;4.65;;;1.60;;
77864;SDS011;67061;48.524;9.040;2023-02-04T01:39:35;3.20;;;1.45;;
77864;SDS011;67061;48.524;9.040;2023-02-04T01:42:02;2.95;;;1.50;;
77864;SDS011;67061;48.524;9.040;2023-02-04T01:44:30;2.53;;;1.40;;
77864;SDS011;67061;48.524;9.040;2023-02-04T01:46:58;2.72;;;1.63;;
77864;SDS011;67061;48.524;9.040;2023-02-04T01:49:25;2.92;;;1.45;;
77864;SDS011;67061;48.524;9.040;2023-02-04T01:51:52;2.75;;;1.40;;
77864;SDS011;67061;48.524;9.040;2023-02-04T01:54:19;3.28;;;1.65;;
77864;SDS011;67061;48.524;9.040;2023-02-04T01:56:47;3.15;;;1.98;;
77864;SDS011;67061;48.524;9.040;2023-02-04T01:59:16;3.13;;;2.08;;
77864;SDS011;67061;48.524;9.040;2023-02-04T02:01:44;2.92;;;1.42;;
77864;SDS011;67061;48.524;9.040;2023-02-04T02:04:15;3.30;;;1.58;;
77864;SDS011;67061;48.524;9.040;2023-02-04T02:06:44;3.45;;;1.95;;
77864;SDS011;67061;48.524;9.040;2023-02-04T02:09:14;3.10;;;2.03;;
77864;SDS011;67061;48.524;9.040;2023-02-04T02:11:41;2.53;;;1.98;;
77864;SDS011;67061;48.524;9.040;2023-02-04T02:14:08;3.90;;;1.67;;
77864;SDS011;67061;48.524;9.040;2023-02-04T02:16:36;3.97;;;2.22;;
77864;SDS011;67061;48.524;9.040;2023-02-04T02:19:03;3.35;;;2.40;;
77864;SDS011;67061;48.524;9.040;2023-02-04T02:21:35;3.38;;;2.30;;
77864;SDS011;67061;48.524;9.040;2023-02-04T02:26:52;3.85;;;2.75;;
77864;SDS011;67061;48.524;9.040;2023-02-04T02:29:20;3.80;;;2.08;;
77864;SDS011;67061;48.524;9.040;2023-02-04T02:31:47;4.00;;;2.17;;
77864;SDS011;67061;48.524;9.040;2023-02-04T02:34:15;3.95;;;2.40;;
77864;SDS011;67061;48.524;9.040;2023-02-04T02:36:42;4.80;;;2.60;;
77864;SDS011;67061;48.524;9.040;2023-02-04T02:39:10;3.63;;;1.95;;
77864;SDS011;67061;48.524;9.040;2023-02-04T02:41:38;3.35;;;2.38;;
77864;SDS011;67061;48.524;9.040;2023-02-04T02:44:05;3.97;;;2.80;;
77864;SDS011;67061;48.524;9.040;2023-02-04T02:46:32;3.72;;;2.58;;
77864;SDS011;67061;48.524;9.040;2023-02-04T02:48:59;4.60;;;2.58;;
77864;SDS011;67061;48.524;9.040;2023-02-04T02:51:26;3.85;;;2.70;;
77864;SDS011;67061;48.524;9.040;2023-02-04T02:53:54;5.95;;;2.78;;
77864;SDS011;67061;48.524;9.040;2023-02-04T02:56:21;5.32;;;3.20;;
77864;SDS011;67061;48.524;9.040;2023-02-04T02:58:49;4.82;;;3.00;;
77864;SDS011;67061;48.524;9.040;2023-02-04T03:01:17;5.28;;;3.13;;
77864;SDS011;67061;48.524;9.040;2023-02-04T03:03:44;5.00;;;3.30;;
77864;SDS011;67061;48.524;9.040;2023-02-04T03:06:14;5.53;;;3.10;;
77864;SDS011;67061;48.524;9.040;2023-02-04T03:08:45;4.80;;;3.20;;
77864;SDS011;67061;48.524;9.040;2023-02-04T03:11:13;5.88;;;3.40;;
77864;SDS011;67061;48.524;9.040;2023-02-04T03:13:40;5.25;;;3.42;;
77864;SDS011;67061;48.524;9.040;2023-02-04T03:16:08;6.60;;;3.83;;
77864;SDS011;67061;48.524;9.040;2023-02-04T03:18:36;5.50;;;3.63;;
77864;SDS011;67061;48.524;9.040;2023-02-04T03:21:04;4.78;;;3.17;;
77864;SDS011;67061;48.524;9.040;2023-02-04T03:23:32;6.28;;;3.55;;
77864;SDS011;67061;48.524;9.040;2023-02-04T03:26:00;6.30;;;3.40;;
77864;SDS011;67061;48.524;9.040;2023-02-04T03:28:29;5.07;;;3.15;;
77864;SDS011;67061;48.524;9.040;2023-02-04T03:30:56;5.45;;;3.63;;
77864;SDS011;67061;48.524;9.040;2023-02-04T03:33:26;5.45;;;3.80;;
77864;SDS011;67061;48.524;9.040;2023-02-04T03:35:55;5.53;;;3.08;;
77864;SDS011;67061;48.524;9.040;2023-02-04T03:38:22;5.15;;;3.90;;
77864;SDS011;67061;48.524;9.040;2023-02-04T03:40:49;5.70;;;3.70;;
77864;SDS011;67061;48.524;9.040;2023-02-04T03:43:16;4.53;;;3.40;;
77864;SDS011;67061;48.524;9.040;2023-02-04T03:45:43;5.13;;;3.28;;
77864;SDS011;67061;48.524;9.040;2023-02-04T03:48:10;5.07;;;3.45;;
77864;SDS011;67061;48.524;9.040;2023-02-04T03:50:38;4.70;;;3.35;;
77864;SDS011;67061;48.524;9.040;2023-02-04T03:53:05;4.40;;;3.08;;
77864;SDS011;67061;48.524;9.040;2023-02-04T03:55:32;4.38;;;2.95;;
77864;SDS011;67061;48.524;9.040;2023-02-04T03:58:00;3.65;;;1.67;;
77864;SDS011;67061;48.524;9.040;2023-02-04T04:00:27;5.97;;;2.75;;
77864;SDS011;67061;48.524;9.040;2023-02-04T04:02:54;4.07;;;2.75;;
77864;SDS011;67061;48.524;9.040;2023-02-04T04:05:21;6.03;;;2.78;;
77864;SDS011;67061;48.524;9.040;2023-02-04T04:07:49;4.13;;;2.53;;
77864;SDS011;67061;48.524;9.040;2023-02-04T04:10:16;5.13;;;2.90;;
77864;SDS011;67061;48.524;9.040;2023-02-04T04:12:43;5.60;;;3.53;;
77864;SDS011;67061;48.524;9.040;2023-02-04T04:15:10;5.40;;;2.90;;
77864;SDS011;67061;48.524;9.040;2023-02-04T04:17:37;5.53;;;3.35;;
77864;SDS011;67061;48.524;9.040;2023-02-04T04:20:04;7.68;;;3.53;;
77864;SDS011;67061;48.524;9.040;2023-02-04T04:22:31;5.53;;;3.70;;
77864;SDS011;67061;48.524;9.040;2023-02-04T04:25:00;4.10;;;2.35;;
77864;SDS011;67061;48.524;9.040;2023-02-04T04:27:27;3.25;;;2.45;;
77864;SDS011;67061;48.524;9.040;2023-02-04T04:29:54;4.65;;;1.90;;
77864;SDS011;67061;48.524;9.040;2023-02-04T04:32:21;3.85;;;2.30;;
77864;SDS011;67061;48.524;9.040;2023-02-04T04:34:48;6.68;;;2.88;;
77864;SDS011;67061;48.524;9.040;2023-02-04T04:37:14;7.00;;;2.20;;
77864;SDS011;67061;48.524;9.040;2023-02-04T04:39:41;5.25;;;2.28;;
77864;SDS011;67061;48.524;9.040;2023-02-04T04:42:09;5.80;;;1.73;;
77864;SDS011;67061;48.524;9.040;2023-02-04T04:44:36;5.15;;;2.28;;
77864;SDS011;67061;48.524;9.040;2023-02-04T04:47:03;2.35;;;0.73;;
77864;SDS011;67061;48.524;9.040;2023-02-04T04:49:30;5.40;;;1.90;;
77864;SDS011;67061;48.524;9.040;2023-02-04T04:51:57;3.33;;;1.50;;
77864;SDS011;67061;48.524;9.040;2023-02-04T04:54:24;4.18;;;1.90;;
77864;SDS011;67061;48.524;9.040;2023-02-04T04:56:50;3.42;;;1.27;;
77864;SDS011;67061;48.524;9.040;2023-02-04T04:59:19;3.80;;;1.92;;
77864;SDS011;67061;48.524;9.040;2023-02-04T05:01:45;3.72;;;1.77;;
77864;SDS011;67061;48.524;9.040;2023-02-04T05:04:12;2.58;;;1.42;;
77864;SDS011;67061;48.524;9.040;2023-02-04T05:06:39;4.30;;;1.50;;
77864;SDS011;67061;48.524;9.040;2023-02-04T05:09:06;3.08;;;1.48;;
77864;SDS011;67061;48.524;9.040;2023-02-04T05:11:33;3.85;;;1.88;;
77864;SDS011;67061;48.524;9.040;2023-02-04T05:14:00;4.15;;;1.40;;
77864;SDS011;67061;48.524;9.040;2023-02-04T05:16:28;4.32;;;1.67;;
77864;SDS011;67061;48.524;9.040;2023-02-04T05:18:55;4.80;;;1.63;;
77864;SDS011;67061;48.524;9.040;2023-02-04T05:21:22;2.30;;;1.23;;
77864;SDS011;67061;48.524;9.040;2023-02-04T05:23:49;5.80;;;3.25;;
77864;SDS011;67061;48.524;9.040;2023-02-04T05:26:16;5.63;;;4.25;;
77864;SDS011;67061;48.524;9.040;2023-02-04T05:28:43;4.95;;;3.90;;
77864;SDS011;67061;48.524;9.040;2023-02-04T05:31:09;5.85;;;2.33;;
77864;SDS011;67061;48.524;9.040;2023-02-04T05:33:38;4.53;;;2.60;;
77864;SDS011;67061;48.524;9.040;2023-02-04T05:36:05;4.35;;;1.30;;
77864;SDS011;67061;48.524;9.040;2023-02-04T05:38:32;5.38;;;2.33;;
77864;SDS011;67061;48.524;9.040;2023-02-04T05:40:59;2.60;;;1.58;;
77864;SDS011;67061;48.524;9.040;2023-02-04T05:43:25;3.47;;;1.20;;
77864;SDS011;67061;48.524;9.040;2023-02-04T05:45:52;3.78;;;2.25;;
77864;SDS011;67061;48.524;9.040;2023-02-04T05:48:19;2.88;;;1.67;;
77864;SDS011;67061;48.524;9.040;2023-02-04T05:50:47;3.15;;;1.92;;
77864;SDS011;67061;48.524;9.040;2023-02-04T05:53:14;5.32;;;1.88;;
77864;SDS011;67061;48.524;9.040;2023-02-04T05:55:41;3.83;;;2.47;;
77864;SDS011;67061;48.524;9.040;2023-02-04T05:58:08;3.05;;;1.98;;
77864;SDS011;67061;48.524;9.040;2023-02-04T06:00:35;4.05;;;2.00;;
77864;SDS011;67061;48.524;9.040;2023-02-04T06:03:01;4.95;;;2.33;;
77864;SDS011;67061;48.524;9.040;2023-02-04T06:05:29;4.07;;;2.03;;
77864;SDS011;67061;48.524;9.040;2023-02-04T06:07:57;4.03;;;2.72;;
77864;SDS011;67061;48.524;9.040;2023-02-04T06:10:24;5.45;;;4.03;;
77864;SDS011;67061;48.524;9.040;2023-02-04T06:12:51;4.43;;;3.10;;
77864;SDS011;67061;48.524;9.040;2023-02-04T06:15:17;4.25;;;2.72;;
77864;SDS011;67061;48.524;9.040;2023-02-04T06:17:45;7.65;;;3.70;;
77864;SDS011;67061;48.524;9.040;2023-02-04T06:20:12;4.50;;;2.72;;
77864;SDS011;67061;48.524;9.040;2023-02-04T06:22:39;5.95;;;3.90;;
77864;SDS011;67061;48.524;9.040;2023-02-04T06:25:08;9.00;;;6.22;;
77864;SDS011;67061;48.524;9.040;2023-02-04T06:27:35;3.95;;;2.13;;
77864;SDS011;67061;48.524;9.040;2023-02-04T06:30:02;6.05;;;2.85;;
77864;SDS011;67061;48.524;9.040;2023-02-04T06:32:29;5.03;;;2.45;;
77864;SDS011;67061;48.524;9.040;2023-02-04T06:34:56;4.18;;;2.97;;
77864;SDS011;67061;48.524;9.040;2023-02-04T06:37:23;4.55;;;2.47;;
77864;SDS011;67061;48.524;9.040;2023-02-04T06:39:49;6.63;;;1.70;;
77864;SDS011;67061;48.524;9.040;2023-02-04T06:42:20;3.72;;;2.55;;
77864;SDS011;67061;48.524;9.040;2023-02-04T06:44:46;4.22;;;2.65;;
77864;SDS011;67061;48.524;9.040;2023-02-04T06:47:13;4.88;;;2.45;;
77864;SDS011;67061;48.524;9.040;2023-02-04T06:49:40;4.28;;;2.45;;
77864;SDS011;67061;48.524;9.040;2023-02-04T06:52:07;6.07;;;2.97;;
77864;SDS011;67061;48.524;9.040;2023-02-04T06:54:35;4.80;;;2.70;;
77864;SDS011;67061;48.524;9.040;2023-02-04T06:57:02;4.75;;;2.75;;
77864;SDS011;67061;48.524;9.040;2023-02-04T06:59:33;7.43;;;3.20;;
77864;SDS011;67061;48.524;9.040;2023-02-04T07:04:28;6.80;;;3.67;;
77864;SDS011;67061;48.524;9.040;2023-02-04T07:06:55;13.07;;;4.78;;
77864;SDS011;67061;48.524;9.040;2023-02-04T07:09:21;7.00;;;3.58;;
77864;SDS011;67061;48.524;9.040;2023-02-04T07:11:48;7.65;;;3.63;;
77864;SDS011;67061;48.524;9.040;2023-02-04T07:14:15;11.20;;;5.97;;
77864;SDS011;67061;48.524;9.040;2023-02-04T07:16:44;11.43;;;6.22;;
77864;SDS011;67061;48.524;9.040;2023-02-04T07:19:11;8.73;;;4.57;;
77864;SDS011;67061;48.524;9.040;2023-02-04T07:21:37;11.60;;;5.43;;
77864;SDS011;67061;48.524;9.040;2023-02-04T07:24:04;9.02;;;4.43;;
77864;SDS011;67061;48.524;9.040;2023-02-04T07:26:31;7.57;;;4.10;;
77864;SDS011;67061;48.524;9.040;2023-02-04T07:28:59;6.28;;;3.88;;
77864;SDS011;67061;48.524;9.040;2023-02-04T07:31:26;6.65;;;3.33;;
77864;SDS011;67061;48.524;9.040;2023-02-04T07:33:54;7.30;;;4.22;;
77864;SDS011;67061;48.524;9.040;2023-02-04T07:36:21;6.68;;;3.80;;
77864;SDS011;67061;48.524;9.040;2023-02-04T07:38:48;6.40;;;3.17;;
77864;SDS011;67061;48.524;9.040;2023-02-04T07:41:15;5.88;;;4.43;;
77864;SDS011;67061;48.524;9.040;2023-02-04T07:43:42;5.30;;;3.03;;
77864;SDS011;67061;48.524;9.040;2023-02-04T07:46:08;7.30;;;3.67;;
77864;SDS011;67061;48.524;9.040;2023-02-04T07:48:35;8.45;;;4.07;;
77864;SDS011;67061;48.524;9.040;2023-02-04T07:51:04;6.40;;;3.78;;
77864;SDS011;67061;48.524;9.040;2023-02-04T07:53:31;9.10;;;4.32;;
77864;SDS011;67061;48.524;9.040;2023-02-04T07:55:58;7.18;;;3.95;;
77864;SDS011;67061;48.524;9.040;2023-02-04T07:58:24;7.95;;;4.40;;
77864;SDS011;67061;48.524;9.040;2023-02-04T08:00:51;10.55;;;4.32;;
77864;SDS011;67061;48.524;9.040;2023-02-04T08:03:18;10.00;;;4.18;;
77864;SDS011;67061;48.524;9.040;2023-02-04T08:05:45;8.10;;;3.88;;
77864;SDS011;67061;48.524;9.040;2023-02-04T08:08:13;9.52;;;3.63;;
77864;SDS011;67061;48.524;9.040;2023-02-04T08:10:40;7.55;;;3.80;;
77864;SDS011;67061;48.524;9.040;2023-02-04T08:13:07;11.73;;;4.05;;
77864;SDS011;67061;48.524;9.040;2023-02-04T08:15:34;9.18;;;4.10;;
77864;SDS011;67061;48.524;9.040;2023-02-04T08:18:01;8.65;;;4.20;;
77864;SDS011;67061;48.524;9.040;2023-02-04T08:20:28;11.85;;;7.97;;
77864;SDS011;67061;48.524;9.040;2023-02-04T08:22:56;9.38;;;5.07;;
77864;SDS011;67061;48.524;9.040;2023-02-04T08:25:24;9.73;;;4.40;;
77864;SDS011;67061;48.524;9.040;2023-02-04T08:27:53;9.70;;;3.70;;
77864;SDS011;67061;48.524;9.040;2023-02-04T08:30:19;13.27;;;4.45;;
77864;SDS011;67061;48.524;9.040;2023-02-04T08:32:46;13.05;;;4.75;;
77864;SDS011;67061;48.524;9.040;2023-02-04T08:35:13;14.88;;;6.38;;
77864;SDS011;67061;48.524;9.040;2023-02-04T08:37:40;11.73;;;4.32;;
77864;SDS011;67061;48.524;9.040;2023-02-04T08:40:08;10.02;;;4.22;;
77864;SDS011;67061;48.524;9.040;2023-02-04T08:42:37;13.43;;;4.60;;
77864;SDS011;67061;48.524;9.040;2023-02-04T08:45:04;14.05;;;5.25;;
77864;SDS011;67061;48.524;9.040;2023-02-04T08:47:31;9.77;;;3.78;;
77864;SDS011;67061;48.524;9.040;2023-02-04T08:49:58;12.70;;;4.20;;
77864;SDS011;67061;48.524;9.040;2023-02-04T08:52:24;11.18;;;2.83;;
77864;SDS011;67061;48.524;9.040;2023-02-04T08:54:51;15.60;;;4.13;;
77864;SDS011;67061;48.524;9.040;2023-02-04T08:57:18;10.98;;;3.85;;
77864;SDS011;67061;48.524;9.040;2023-02-04T08:59:46;8.68;;;4.32;;
77864;SDS011;67061;48.524;9.040;2023-02-04T09:02:13;12.48;;;4.15;;
77864;SDS011;67061;48.524;9.040;2023-02-04T09:04:40;14.10;;;4.00;;
77864;SDS011;67061;48.524;9.040;2023-02-04T09:07:07;14.88;;;4.32;;
77864;SDS011;67061;48.524;9.040;2023-02-04T09:09:34;10.90;;;4.22;;
77864;SDS011;67061;48.524;9.040;2023-02-04T09:12:00;11.38;;;4.10;;
77864;SDS011;67061;48.524;9.040;2023-02-04T09:14:28;10.75;;;3.55;;
77864;SDS011;67061;48.524;9.040;2023-02-04T09:16:56;7.80;;;3.25;;
77864;SDS011;67061;48.524;9.040;2023-02-04T09:19:23;12.10;;;3.53;;
77864;SDS011;67061;48.524;9.040;2023-02-04T09:21:50;12.20;;;3.40;;
77864;SDS011;67061;48.524;9.040;2023-02-04T09:24:17;9.18;;;3.08;;
77864;SDS011;67061;48.524;9.040;2023-02-04T09:26:47;9.57;;;3.08;;
77864;SDS011;67061;48.524;9.040;2023-02-04T09:29:14;10.73;;;3.85;;
77864;SDS011;67061;48.524;9.040;2023-02-04T09:31:41;8.85;;;3.08;;
77864;SDS011;67061;48.524;9.040;2023-02-04T09:34:09;9.55;;;4.07;;
77864;SDS011;67061;48.524;9.040;2023-02-04T09:36:36;13.55;;;3.15;;
77864;SDS011;67061;48.524;9.040;2023-02-04T09:39:03;8.65;;;2.88;;
77864;SDS011;67061;48.524;9.040;2023-02-04T09:41:31;12.88;;;5.00;;
77864;SDS011;67061;48.524;9.040;2023-02-04T09:43:58;10.27;;;3.45;;
77864;SDS011;67061;48.524;9.040;2023-02-04T09:46:26;6.50;;;2.78;;
77864;SDS011;67061;48.524;9.040;2023-02-04T09:48:54;9.40;;;3.05;;
77864;SDS011;67061;48.524;9.040;2023-02-04T09:51:25;11.23;;;3.00;;
77864;SDS011;67061;48.524;9.040;2023-02-04T09:53:54;9.23;;;3.47;;
77864;SDS011;67061;48.524;9.040;2023-02-04T09:56:25;12.27;;;3.55;;
77864;SDS011;67061;48.524;9.040;2023-02-04T09:58:52;9.90;;;3.33;;
77864;SDS011;67061;48.524;9.040;2023-02-04T10:01:20;9.63;;;3.05;;
77864;SDS011;67061;48.524;9.040;2023-02-04T10:03:47;7.97;;;3.58;;
77864;SDS011;67061;48.524;9.040;2023-02-04T10:06:15;10.60;;;3.63;;
77864;SDS011;67061;48.524;9.040;2023-02-04T10:08:45;5.32;;;2.53;;
77864;SDS011;67061;48.524;9.040;2023-02-04T10:11:13;8.85;;;2.85;;
77864;SDS011;67061;48.524;9.040;2023-02-04T10:13:44;5.90;;;2.47;;
77864;SDS011;67061;48.524;9.040;2023-02-04T10:16:14;8.32;;;2.95;;
77864;SDS011;67061;48.524;9.040;2023-02-04T10:21:14;6.32;;;2.53;;
77864;SDS011;67061;48.524;9.040;2023-02-04T10:23:45;8.02;;;3.33;;
77864;SDS011;67061;48.524;9.040;2023-02-04T10:26:14;5.88;;;1.95;;
77864;SDS011;67061;48.524;9.040;2023-02-04T10:28:42;8.45;;;2.75;;
77864;SDS011;67061;48.524;9.040;2023-02-04T10:34:06;4.75;;;2.08;;
77864;SDS011;67061;48.524;9.040;2023-02-04T10:36:37;7.07;;;2.30;;
77864;SDS011;67061;48.524;9.040;2023-02-04T10:39:08;7.43;;;2.25;;
77864;SDS011;67061;48.524;9.040;2023-02-04T10:41:37;7.72;;;2.13;;
77864;SDS011;67061;48.524;9.040;2023-02-04T10:44:09;8.10;;;1.33;;
77864;SDS011;67061;48.524;9.040;2023-02-04T10:46:37;6.45;;;1.77;;
77864;SDS011;67061;48.524;9.040;2023-02-04T10:49:04;8.15;;;2.30;;
77864;SDS011;67061;48.524;9.040;2023-02-04T10:51:41;5.78;;;2.25;;
77864;SDS011;67061;48.524;9.040;2023-02-04T10:54:10;6.38;;;1.90;;
77864;SDS011;67061;48.524;9.040;2023-02-04T10:56:57;10.70;;;2.33;;
77864;SDS011;67061;48.524;9.040;2023-02-04T10:59:28;6.70;;;1.98;;
77864;SDS011;67061;48.524;9.040;2023-02-04T11:01:55;11.05;;;2.45;;
77864;SDS011;67061;48.524;9.040;2023-02-04T11:04:25;9.57;;;1.95;;
77864;SDS011;67061;48.524;9.040;2023-02-04T11:06:52;8.48;;;2.45;;
77864;SDS011;67061;48.524;9.040;2023-02-04T11:09:21;6.20;;;2.00;;
77864;SDS011;67061;48.524;9.040;2023-02-04T11:11:48;6.22;;;2.42;;
77864;SDS011;67061;48.524;9.040;2023-02-04T11:14:21;7.50;;;2.60;;
77864;SDS011;67061;48.524;9.040;2023-02-04T11:16:50;7.35;;;2.42;;
77864;SDS011;67061;48.524;9.040;2023-02-04T11:19:29;4.80;;;1.67;;
77864;SDS011;67061;48.524;9.040;2023-02-04T11:22:03;7.47;;;1.67;;
77864;SDS011;67061;48.524;9.040;2023-02-04T11:24:48;9.55;;;2.15;;
77864;SDS011;67061;48.524;9.040;2023-02-04T11:27:22;7.43;;;1.90;;
77864;SDS011;67061;48.524;9.040;2023-02-04T11:32:28;6.60;;;2.17;;
77864;SDS011;67061;48.524;9.040;2023-02-04T11:35:06;6.63;;;2.28;;
77864;SDS011;67061;48.524;9.040;2023-02-04T11:37:46;6.55;;;2.35;;
77864;SDS011;67061;48.524;9.040;2023-02-04T11:40:23;9.38;;;2.40;;
77864;SDS011;67061;48.524;9.040;2023-02-04T11:42:59;6.65;;;2.90;;
77864;SDS011;67061;48.524;9.040;2023-02-04T11:47:56;6.65;;;1.70;;
77864;SDS011;67061;48.524;9.040;2023-02-04T11:50:26;7.43;;;2.42;;
77864;SDS011;67061;48.524;9.040;2023-02-04T11:52:56;6.65;;;2.30;;
77864;SDS011;67061;48.524;9.040;2023-02-04T11:55:27;4.85;;;1.33;;
77864;SDS011;67061;48.524;9.040;2023-02-04T11:57:56;6.53;;;1.65;;
77864;SDS011;67061;48.524;9.040;2023-02-04T12:00:24;8.88;;;1.98;;
77864;SDS011;67061;48.524;9.040;2023-02-04T12:02:54;5.90;;;1.98;;
77864;SDS011;67061;48.524;9.040;2023-02-04T12:05:28;7.22;;;1.92;;
77864;SDS011;67061;48.524;9.040;2023-02-04T12:08:08;9.35;;;1.70;;
77864;SDS011;67061;48.524;9.040;2023-02-04T12:10:37;9.95;;;2.17;;
77864;SDS011;67061;48.524;9.040;2023-02-04T12:13:11;7.22;;;2.10;;
77864;SDS011;67061;48.524;9.040;2023-02-04T12:15:41;7.50;;;1.70;;
77864;SDS011;67061;48.524;9.040;2023-02-04T12:20:43;7.40;;;2.40;;
77864;SDS011;67061;48.524;9.040;2023-02-04T12:23:10;6.47;;;2.53;;
77864;SDS011;67061;48.524;9.040;2023-02-04T12:25:38;5.90;;;2.00;;
77864;SDS011;67061;48.524;9.040;2023-02-04T12:28:05;7.97;;;2.33;;
77864;SDS011;67061;48.524;9.040;2023-02-04T12:30:32;5.68;;;2.05;;
77864;SDS011;67061;48.524;9.040;2023-02-04T12:33:00;8.88;;;2.20;;
77864;SDS011;67061;48.524;9.040;2023-02-04T12:35:27;7.57;;;2.00;;
77864;SDS011;67061;48.524;9.040;2023-02-04T12:37:53;10.10;;;2.05;;
77864;SDS011;67061;48.524;9.040;2023-02-04T12:40:20;7.35;;;2.33;;
77864;SDS011;67061;48.524;9.040;2023-02-04T12:42:49;7.72;;;1.50;;
77864;SDS011;67061;48.524;9.040;2023-02-04T12:45:16;5.53;;;1.90;;
77864;SDS011;67061;48.524;9.040;2023-02-04T12:47:43;7.57;;;2.38;;
77864;SDS011;67061;48.524;9.040;2023-02-04T12:50:11;5.95;;;1.83;;
77864;SDS011;67061;48.524;9.040;2023-02-04T12:52:39;5.30;;;2.33;;
77864;SDS011;67061;48.524;9.040;2023-02-04T12:55:06;5.90;;;2.25;;
77864;SDS011;67061;48.524;9.040;2023-02-04T12:57:34;7.57;;;2.08;;
77864;SDS011;67061;48.524;9.040;2023-02-04T13:00:02;5.47;;;2.15;;
77864;SDS011;67061;48.524;9.040;2023-02-04T13:02:31;7.18;;;2.25;;
77864;SDS011;67061;48.524;9.040;2023-02-04T13:04:58;5.93;;;2.05;;
77864;SDS011;67061;48.524;9.040;2023-02-04T13:07:24;7.60;;;2.53;;
77864;SDS011;67061;48.524;9.040;2023-02-04T13:09:51;9.57;;;1.70;;
77864;SDS011;67061;48.524;9.040;2023-02-04T13:12:18;6.13;;;1.10;;
77864;SDS011;67061;48.524;9.040;2023-02-04T13:14:45;10.70;;;2.35;;
77864;SDS011;67061;48.524;9.040;2023-02-04T13:17:13;8.82;;;1.40;;
77864;SDS011;67061;48.524;9.040;2023-02-04T13:19:40;7.38;;;2.60;;
77864;SDS011;67061;48.524;9.040;2023-02-04T13:22:07;5.50;;;2.20;;
77864;SDS011;67061;48.524;9.040;2023-02-04T13:24:34;7.60;;;1.10;;
77864;SDS011;67061;48.524;9.040;2023-02-04T13:27:01;6.72;;;1.40;;
77864;SDS011;67061;48.524;9.040;2023-02-04T13:29:28;8.23;;;2.38;;
77864;SDS011;67061;48.524;9.040;2023-02-04T13:31:55;7.65;;;1.70;;
77864;SDS011;67061;48.524;9.040;2023-02-04T13:34:23;11.57;;;2.20;;
77864;SDS011;67061;48.524;9.040;2023-02-04T13:36:50;6.60;;;1.83;;
77864;SDS011;67061;48.524;9.040;2023-02-04T13:39:18;7.13;;;1.90;;
77864;SDS011;67061;48.524;9.040;2023-02-04T13:41:44;9.75;;;2.17;;
77864;SDS011;67061;48.524;9.040;2023-02-04T13:44:11;9.70;;;2.13;;
77864;SDS011;67061;48.524;9.040;2023-02-04T13:46:38;7.60;;;1.65;;
77864;SDS011;67061;48.524;9.040;2023-02-04T13:49:05;6.90;;;1.92;;
77864;SDS011;67061;48.524;9.040;2023-02-04T13:51:33;5.97;;;1.85;;
77864;SDS011;67061;48.524;9.040;2023-02-04T13:54:00;8.80;;;2.67;;
77864;SDS011;67061;48.524;9.040;2023-02-04T13:56:27;6.03;;;2.25;;
77864;SDS011;67061;48.524;9.040;2023-02-04T13:58:56;8.85;;;2.13;;
77864;SDS011;67061;48.524;9.040;2023-02-04T14:01:23;5.78;;;2.67;;
77864;SDS011;67061;48.524;9.040;2023-02-04T14:03:52;8.02;;;2.10;;
77864;SDS011;67061;48.524;9.040;2023-02-04T14:06:28;8.13;;;2.05;;
77864;SDS011;67061;48.524;9.040;2023-02-04T14:09:09;7.13;;;2.17;;
77864;SDS011;67061;48.524;9.040;2023-02-04T14:11:37;7.68;;;1.92;;
77864;SDS011;67061;48.524;9.040;2023-02-04T14:14:04;5.72;;;1.73;;
77864;SDS011;67061;48.524;9.040;2023-02-04T14:16:31;6.15;;;2.42;;
77864;SDS011;67061;48.524;9.040;2023-02-04T14:18:58;8.02;;;1.85;;
77864;SDS011;67061;48.524;9.040;2023-02-04T14:21:25;6.43;;;1.52;;
77864;SDS011;67061;48.524;9.040;2023-02-04T14:23:52;6.60;;;1.60;;
77864;SDS011;67061;48.524;9.040;2023-02-04T14:26:20;5.70;;;1.13;;
77864;SDS011;67061;48.524;9.040;2023-02-04T14:28:47;6.55;;;1.33;;
77864;SDS011;67061;48.524;9.040;2023-02-04T14:31:14;6.95;;;1.42;;
77864;SDS011;67061;48.524;9.040;2023-02-04T14:33:41;5.45;;;1.63;;
77864;SDS011;67061;48.524;9.040;2023-02-04T14:36:08;6.63;;;2.25;;
77864;SDS011;67061;48.524;9.040;2023-02-04T14:38:35;5.40;;;1.70;;
77864;SDS011;67061;48.524;9.040;2023-02-04T14:41:03;6.18;;;1.92;;
77864;SDS011;67061;48.524;9.040;2023-02-04T14:43:31;5.63;;;1.88;;
77864;SDS011;67061;48.524;9.040;2023-02-04T14:46:01;6.40;;;1.55;;
77864;SDS011;67061;48.524;9.040;2023-02-04T14:48:28;5.88;;;1.40;;
77864;SDS011;67061;48.524;9.040;2023-02-04T14:50:55;6.10;;;1.80;;
77864;SDS011;67061;48.524;9.040;2023-02-04T14:53:22;8.02;;;2.08;;
77864;SDS011;67061;48.524;9.040;2023-02-04T14:55:49;6.93;;;2.33;;
77864;SDS011;67061;48.524;9.040;2023-02-04T14:58:16;6.07;;;1.58;;
77864;SDS011;67061;48.524;9.040;2023-02-04T15:00:44;6.13;;;2.25;;
77864;SDS011;67061;48.524;9.040;2023-02-04T15:03:11;4.88;;;1.75;;
77864;SDS011;67061;48.524;9.040;2023-02-04T15:05:38;9.73;;;1.80;;
77864;SDS011;67061;48.524;9.040;2023-02-04T15:08:05;7.85;;;1.75;;